createdAt,value
2022-08-22T00:02:45.812Z,81.20
2022-08-22T00:02:55.895Z,83.68
2022-08-22T00:03:00.776Z,81.99
2022-08-22T00:06:08.789Z,83.08
2022-08-22T00:08:57.221Z,83.26
2022-08-22T00:11:46.162Z,83.79
2022-08-22T00:17:11.130Z,83.84
2022-08-22T00:20:28.114Z,83.90
2022-08-22T00:23:23.246Z,84.21
2022-08-22T00:26:24.250Z,84.49
2022-08-22T00:29:01.781Z,84.42
2022-08-22T00:31:45.015Z,84.99
2022-08-22T00:34:24.130Z,84.85
2022-08-22T00:37:32.690Z,85.19
2022-08-22T00:40:19.440Z,85.01
2022-08-22T00:43:11.057Z,84.87
2022-08-22T00:45:56.509Z,84.97
2022-08-22T00:49:01.096Z,84.83
2022-08-22T00:51:46.154Z,85.02
2022-08-22T00:54:47.486Z,84.38
2022-08-22T00:57:24.767Z,84.22
2022-08-22T01:00:22.605Z,83.88
2022-08-22T01:03:48.966Z,84.31
2022-08-22T01:06:46.003Z,84.50
2022-08-22T01:09:54.914Z,85.55
2022-08-22T01:12:50.241Z,84.67
2022-08-22T01:15:29.392Z,84.43
2022-08-22T01:18:16.635Z,84.49
2022-08-22T01:27:06.105Z,84.16
2022-08-22T01:29:51.384Z,84.08
2022-08-22T01:33:02.423Z,84.50
2022-08-22T01:35:47.911Z,84.43
2022-08-22T01:38:37.097Z,84.59
2022-08-22T01:41:40.194Z,84.26
2022-08-22T01:44:28.209Z,84.13
2022-08-22T01:47:12.633Z,84.39
2022-08-22T01:49:54.081Z,84.12
2022-08-22T01:52:31.223Z,84.31
2022-08-22T01:55:12.301Z,84.43
2022-08-22T01:57:59.036Z,85.48
2022-08-22T02:04:01.929Z,86.08
2022-08-22T02:06:59.351Z,85.52
2022-08-22T02:10:10.467Z,86.43
2022-08-22T02:13:08.715Z,86.12
2022-08-22T02:15:43.991Z,85.42
2022-08-22T02:18:23.601Z,85.52
2022-08-22T02:21:22.772Z,86.32
2022-08-22T02:24:01.145Z,85.85
2022-08-22T02:27:17.885Z,85.27
2022-08-22T02:32:40.650Z,85.50
2022-08-22T02:35:23.042Z,85.16
2022-08-22T02:38:06.635Z,85.07
2022-08-22T02:41:05.236Z,84.81
2022-08-22T02:43:53.405Z,85.40
2022-08-22T02:46:34.010Z,85.11
2022-08-22T02:52:27.013Z,85.42
2022-08-22T02:55:07.239Z,86.45
2022-08-22T02:57:45.570Z,86.75
2022-08-22T03:00:31.255Z,86.93
2022-08-22T03:03:02.856Z,87.07
2022-08-22T03:05:39.077Z,86.79
2022-08-22T03:08:25.489Z,87.72
2022-08-22T03:11:28.780Z,87.23
2022-08-22T03:14:25.598Z,87.17
2022-08-22T03:17:17.426Z,87.09
2022-08-22T03:20:14.821Z,86.45
2022-08-22T03:23:00.698Z,86.29
2022-08-22T03:31:35.597Z,86.21
2022-08-22T03:34:26.465Z,86.09
2022-08-22T03:37:12.106Z,86.37
2022-08-22T03:43:58.147Z,86.99
2022-08-22T03:47:00.870Z,86.52
2022-08-22T03:49:46.080Z,86.47
2022-08-22T03:52:29.973Z,85.99
2022-08-22T03:55:26.685Z,86.41
2022-08-22T03:58:19.141Z,86.16
2022-08-22T04:01:35.369Z,86.61
2022-08-22T04:04:11.908Z,86.43
2022-08-22T04:13:15.083Z,86.44
2022-08-22T04:15:58.765Z,87.04
2022-08-22T04:19:21.871Z,86.62
2022-08-22T04:22:27.843Z,87.69
2022-08-22T04:25:25.739Z,86.74
2022-08-22T04:28:14.010Z,86.78
2022-08-22T04:31:11.862Z,87.08
2022-08-22T04:34:00.718Z,86.94
2022-08-22T04:36:44.020Z,86.93
2022-08-22T04:39:34.867Z,86.94
2022-08-22T04:42:32.322Z,86.61
2022-08-22T04:45:18.295Z,87.38
2022-08-22T04:47:53.992Z,87.65
2022-08-22T04:50:27.096Z,86.88
2022-08-22T04:53:43.493Z,87.07
2022-08-22T04:56:45.354Z,86.61
2022-08-22T04:59:18.484Z,86.53
2022-08-22T05:01:57.219Z,86.72
2022-08-22T05:04:45.473Z,86.38
2022-08-22T05:07:29.177Z,86.24
2022-08-22T05:10:19.126Z,86.92
2022-08-22T05:13:03.662Z,85.66
2022-08-22T05:15:38.261Z,86.49
2022-08-22T05:18:12.509Z,86.83
2022-08-22T05:20:41.795Z,87.04
2022-08-22T05:23:25.660Z,87.16
2022-08-22T05:26:01.266Z,86.73
2022-08-22T05:28:53.519Z,86.83
2022-08-22T05:31:40.443Z,86.23
2022-08-22T05:34:23.194Z,86.28
2022-08-22T05:37:08.327Z,86.70
2022-08-22T05:39:40.819Z,86.84
2022-08-22T05:42:19.026Z,86.32
2022-08-22T05:44:46.491Z,86.24
2022-08-22T05:47:24.358Z,86.57
2022-08-22T05:50:27.364Z,87.10
2022-08-22T05:53:02.563Z,86.96
2022-08-22T05:55:52.566Z,86.87
2022-08-22T05:59:02.888Z,86.78
2022-08-22T06:02:13.995Z,86.58
2022-08-22T06:04:54.800Z,86.88
2022-08-22T06:07:42.759Z,86.07
2022-08-22T06:10:42.758Z,86.80
2022-08-22T06:13:47.231Z,86.93
2022-08-22T06:16:24.709Z,86.55
2022-08-22T06:18:53.415Z,87.53
2022-08-22T06:21:38.626Z,87.17
2022-08-22T06:24:15.929Z,86.58
2022-08-22T06:26:48.691Z,87.28
2022-08-22T06:29:44.254Z,86.98
2022-08-22T06:32:58.263Z,86.85
2022-08-22T06:35:18.842Z,85.72
2022-08-22T06:37:48.914Z,86.83
2022-08-22T06:40:18.711Z,86.50
2022-08-22T06:42:50.993Z,86.72
2022-08-22T06:45:26.706Z,86.52
2022-08-22T06:48:14.076Z,86.00
2022-08-22T06:50:46.321Z,87.01
2022-08-22T06:53:38.364Z,85.82
2022-08-22T06:56:17.932Z,85.62
2022-08-22T06:58:48.214Z,86.61
2022-08-22T07:01:57.641Z,85.43
2022-08-22T07:04:27.559Z,84.83
2022-08-22T07:06:57.718Z,84.90
2022-08-22T07:09:30.023Z,85.06
2022-08-22T07:12:01.545Z,85.00
2022-08-22T07:14:50.539Z,85.19
2022-08-22T07:17:25.756Z,84.63
2022-08-22T07:20:24.070Z,83.43
2022-08-22T07:23:09.531Z,84.38
2022-08-22T07:26:09.375Z,84.60
2022-08-22T07:28:58.610Z,84.97
2022-08-22T07:31:54.166Z,85.34
2022-08-22T07:34:53.564Z,85.29
2022-08-22T07:38:02.232Z,85.17
2022-08-22T07:41:01.585Z,84.60
2022-08-22T07:43:36.392Z,82.26
2022-08-22T07:46:12.776Z,83.49
2022-08-22T07:52:01.110Z,83.07
2022-08-22T07:57:51.584Z,82.91
2022-08-22T08:00:21.942Z,83.83
2022-08-22T08:03:02.303Z,84.79
2022-08-22T08:05:33.104Z,85.50
2022-08-22T08:08:12.270Z,83.96
2022-08-22T08:10:43.542Z,84.41
2022-08-22T08:13:22.342Z,85.27
2022-08-22T08:15:50.778Z,85.74
2022-08-22T08:18:23.592Z,85.96
2022-08-22T08:20:58.955Z,86.19
2022-08-22T08:23:39.024Z,86.20
2022-08-22T08:26:23.573Z,85.87
2022-08-22T08:28:56.528Z,86.27
2022-08-22T08:31:43.396Z,86.29
2022-08-22T08:34:20.537Z,86.71
2022-08-22T08:37:07.379Z,86.16
2022-08-22T08:39:49.977Z,85.52
2022-08-22T08:43:31.341Z,86.99
2022-08-22T08:46:38.625Z,85.67
2022-08-22T08:49:38.751Z,87.49
2022-08-22T08:53:25.397Z,86.92
2022-08-22T08:56:06.642Z,88.12
2022-08-22T08:58:45.881Z,89.05
2022-08-22T09:01:41.601Z,88.63
2022-08-22T09:04:56.215Z,88.26
2022-08-22T09:07:55.268Z,88.72
2022-08-22T09:10:57.201Z,88.85
2022-08-22T09:13:40.669Z,89.52
2022-08-22T09:16:48.156Z,90.27
2022-08-22T09:19:56.755Z,89.33
2022-08-22T09:22:50.611Z,89.57
2022-08-22T09:25:38.615Z,88.10
2022-08-22T09:28:23.978Z,87.78
2022-08-22T09:31:44.759Z,88.17
2022-08-22T09:34:41.602Z,90.70
2022-08-22T09:37:30.008Z,91.50
2022-08-22T09:40:29.369Z,90.51
2022-08-22T09:43:45.068Z,88.13
2022-08-22T09:46:31.486Z,88.05
2022-08-22T09:52:55.653Z,87.53
2022-08-22T09:55:41.724Z,84.64
2022-08-22T09:58:11.831Z,87.84
2022-08-22T10:00:47.599Z,87.17
2022-08-22T10:04:04.540Z,88.80
2022-08-22T10:06:46.516Z,88.33
2022-08-22T10:09:31.289Z,89.30
2022-08-22T10:12:12.801Z,89.81
2022-08-22T10:15:16.196Z,89.34
2022-08-22T10:18:19.206Z,88.08
2022-08-22T10:21:09.676Z,88.12
2022-08-22T10:24:01.540Z,88.81
2022-08-22T10:27:07.980Z,87.19
2022-08-22T10:30:01.326Z,86.07
2022-08-22T10:33:08.322Z,88.11
2022-08-22T10:36:05.009Z,86.97
2022-08-22T10:38:46.511Z,86.61
2022-08-22T10:41:39.131Z,85.87
2022-08-22T10:44:22.717Z,85.29
2022-08-22T10:47:01.190Z,84.41
2022-08-22T10:49:51.215Z,85.64
2022-08-22T10:52:37.278Z,84.91
2022-08-22T10:55:17.850Z,80.25
2022-08-22T10:58:05.687Z,81.82
2022-08-22T11:00:54.425Z,85.12
2022-08-22T11:04:12.781Z,85.01
2022-08-22T11:06:52.407Z,81.18
2022-08-22T11:09:43.237Z,83.36
2022-08-22T11:12:19.572Z,83.32
2022-08-22T11:15:28.439Z,78.54
2022-08-22T11:18:34.681Z,80.38
2022-08-22T11:21:18.827Z,79.77
2022-08-22T11:24:07.123Z,77.03
2022-08-22T11:26:59.670Z,78.74
2022-08-22T11:29:57.846Z,79.94
2022-08-22T11:33:06.181Z,78.14
2022-08-22T11:35:49.795Z,77.69
2022-08-22T11:38:39.657Z,78.43
2022-08-22T11:41:25.630Z,80.82
2022-08-22T11:44:32.124Z,80.82
2022-08-22T11:47:09.148Z,79.43
2022-08-22T11:50:15.461Z,78.20
2022-08-22T11:53:15.125Z,79.19
2022-08-22T11:56:00.413Z,78.05
2022-08-22T11:58:57.705Z,75.89
2022-08-22T12:01:52.873Z,77.47
2022-08-22T12:04:47.439Z,73.96
2022-08-22T12:07:25.906Z,76.87
2022-08-22T12:10:19.816Z,75.36
2022-08-22T12:13:01.449Z,76.67
2022-08-22T12:15:49.010Z,79.07
2022-08-22T12:18:33.825Z,78.02
2022-08-22T12:21:13.455Z,76.70
2022-08-22T12:23:55.972Z,75.74
2022-08-22T12:26:41.589Z,75.93
2022-08-22T12:29:44.907Z,73.65
2022-08-22T12:33:00.714Z,75.45
2022-08-22T12:35:43.367Z,74.96
2022-08-22T12:38:37.839Z,75.24
2022-08-22T12:41:27.985Z,76.53
2022-08-22T12:44:22.980Z,74.88
2022-08-22T12:47:26.799Z,76.74
2022-08-22T12:50:04.429Z,75.54
2022-08-22T12:52:48.248Z,74.76
2022-08-22T12:55:15.903Z,75.09
2022-08-22T12:58:22.283Z,74.69
2022-08-22T13:00:52.518Z,74.08
2022-08-22T13:03:32.843Z,75.70
2022-08-22T13:06:07.654Z,74.90
2022-08-22T13:08:45.149Z,73.49
2022-08-22T13:11:22.662Z,73.10
2022-08-22T13:13:57.181Z,74.13
2022-08-22T13:16:26.774Z,73.22
2022-08-22T13:19:07.841Z,72.25
2022-08-22T13:21:45.552Z,72.97
2022-08-22T13:24:41.108Z,72.89
2022-08-22T13:27:33.144Z,74.04
2022-08-22T13:30:15.028Z,73.90
2022-08-22T13:32:52.592Z,73.86
2022-08-22T13:36:06.666Z,72.85
2022-08-22T13:38:46.286Z,73.65
2022-08-22T13:41:24.833Z,74.71
2022-08-22T13:44:07.209Z,74.41
2022-08-22T13:46:48.192Z,71.04
2022-08-22T13:49:53.815Z,72.02
2022-08-22T13:52:44.412Z,73.68
2022-08-22T13:55:30.431Z,70.76
2022-08-22T13:58:25.993Z,71.27
2022-08-22T14:01:55.934Z,73.60
2022-08-22T14:04:36.800Z,72.78
2022-08-22T14:07:04.475Z,72.41
2022-08-22T14:10:02.637Z,71.40
2022-08-22T14:12:57.968Z,72.94
2022-08-22T14:15:45.497Z,72.23
2022-08-22T14:18:45.438Z,70.23
2022-08-22T14:21:40.742Z,72.91
2022-08-22T14:24:26.887Z,73.32
2022-08-22T14:27:08.528Z,72.16
2022-08-22T14:30:18.706Z,71.22
2022-08-22T14:32:59.652Z,71.27
2022-08-22T14:35:41.217Z,72.13
2022-08-22T14:38:29.936Z,72.03
2022-08-22T14:41:55.420Z,71.55
2022-08-22T14:44:39.104Z,72.58
2022-08-22T14:47:55.471Z,71.25
2022-08-22T14:50:49.375Z,72.26
2022-08-22T14:53:20.207Z,72.85
2022-08-22T14:56:25.550Z,73.22
2022-08-22T14:58:58.898Z,72.59
2022-08-22T15:01:33.075Z,73.76
2022-08-22T15:04:10.445Z,80.64
2022-08-22T15:07:07.536Z,87.46
2022-08-22T15:09:52.560Z,90.84
2022-08-22T15:12:32.340Z,92.74
2022-08-22T15:15:05.160Z,94.72
2022-08-22T15:17:44.745Z,93.49
2022-08-22T15:20:49.244Z,96.50
2022-08-22T15:23:24.055Z,95.09
2022-08-22T15:26:23.827Z,92.42
2022-08-22T15:29:04.413Z,96.11
2022-08-22T15:31:32.372Z,97.92
2022-08-22T15:34:19.934Z,98.20
2022-08-22T15:37:16.638Z,99.83
2022-08-22T15:40:30.569Z,99.84
2022-08-22T15:42:59.110Z,99.92
2022-08-22T15:45:34.797Z,96.27
2022-08-22T15:48:10.843Z,98.11
2022-08-22T15:50:58.706Z,95.74
2022-08-22T15:54:02.619Z,96.02
2022-08-22T15:57:25.529Z,95.12
2022-08-22T16:00:11.117Z,96.60
2022-08-22T16:03:02.006Z,96.83
2022-08-22T16:05:54.584Z,95.66
2022-08-22T16:08:49.741Z,95.08
2022-08-22T16:11:32.259Z,94.63
2022-08-22T16:14:21.473Z,94.51
2022-08-22T16:17:01.184Z,94.13
2022-08-22T16:19:31.871Z,92.78
2022-08-22T16:22:01.758Z,93.07
2022-08-22T16:24:33.826Z,92.62
2022-08-22T16:27:20.192Z,92.27
2022-08-22T16:29:47.747Z,92.15
2022-08-22T16:32:28.182Z,91.90
2022-08-22T16:34:55.647Z,91.69
2022-08-22T16:37:25.976Z,92.27
2022-08-22T16:40:01.049Z,93.82
2022-08-22T16:42:42.734Z,92.45
2022-08-22T16:45:34.880Z,92.17
2022-08-22T16:48:31.267Z,92.17
2022-08-22T16:51:15.963Z,92.08
2022-08-22T16:54:12.629Z,92.14
2022-08-22T16:57:09.177Z,92.00
2022-08-22T16:59:57.703Z,91.24
2022-08-22T17:02:48.355Z,91.78
2022-08-22T17:05:41.467Z,91.65
2022-08-22T17:08:34.603Z,92.26
2022-08-22T17:11:16.611Z,92.03
2022-08-22T17:14:21.034Z,91.97
2022-08-22T17:17:00.490Z,92.45
2022-08-22T17:20:03.105Z,91.83
2022-08-22T17:22:57.989Z,92.25
2022-08-22T17:25:54.309Z,92.91
2022-08-22T17:28:56.151Z,92.20
2022-08-22T17:31:50.950Z,92.41
2022-08-22T17:34:39.638Z,92.09
2022-08-22T17:37:53.163Z,92.68
2022-08-22T17:40:58.605Z,93.21
2022-08-22T17:44:16.107Z,92.54
2022-08-22T17:47:16.219Z,92.77
2022-08-22T17:49:45.199Z,92.92
2022-08-22T17:52:28.531Z,92.20
2022-08-22T17:55:28.416Z,92.63
2022-08-22T17:58:12.783Z,91.39
2022-08-22T18:01:32.161Z,91.56
2022-08-22T18:04:08.314Z,91.25
2022-08-22T18:06:47.564Z,91.42
2022-08-22T18:09:35.633Z,92.06
2022-08-22T18:12:15.908Z,91.46
2022-08-22T18:14:55.791Z,90.58
2022-08-22T18:17:44.389Z,91.12
2022-08-22T18:20:23.138Z,90.91
2022-08-22T18:23:21.748Z,90.58
2022-08-22T18:26:27.381Z,90.62
2022-08-22T18:29:06.551Z,90.78
2022-08-22T18:32:08.018Z,90.78
2022-08-22T18:35:16.893Z,91.06
2022-08-22T18:37:59.491Z,90.37
2022-08-22T18:40:55.189Z,88.78
2022-08-22T18:43:31.934Z,89.61
2022-08-22T18:46:04.072Z,89.63
2022-08-22T18:48:54.468Z,90.17
2022-08-22T18:51:38.858Z,88.33
2022-08-22T18:54:11.237Z,88.47
2022-08-22T18:57:42.472Z,89.15
2022-08-22T19:00:45.740Z,86.82
2022-08-22T19:03:40.983Z,88.16
2022-08-22T19:06:58.640Z,86.37
2022-08-22T19:10:20.918Z,87.10
2022-08-22T19:13:43.073Z,85.58
2022-08-22T19:16:52.209Z,86.95
2022-08-22T19:19:48.105Z,88.10
2022-08-22T19:22:22.103Z,87.29
2022-08-22T19:25:28.532Z,87.78
2022-08-22T19:28:15.077Z,87.81
2022-08-22T19:31:16.556Z,88.85
2022-08-22T19:34:09.223Z,89.42
2022-08-22T19:36:36.676Z,88.21
2022-08-22T19:39:10.557Z,88.99
2022-08-22T19:41:58.129Z,89.09
2022-08-22T19:44:35.163Z,88.53
2022-08-22T19:47:20.892Z,89.14
2022-08-22T19:50:08.088Z,89.23
2022-08-22T19:52:51.307Z,90.13
2022-08-22T19:55:45.479Z,89.33
2022-08-22T19:58:32.554Z,90.03
2022-08-22T20:01:32.071Z,89.98
2022-08-22T20:04:20.729Z,90.11
2022-08-22T20:07:45.323Z,89.65
2022-08-22T20:10:26.029Z,89.23
2022-08-22T20:13:18.883Z,88.48
2022-08-22T20:16:19.776Z,89.30
2022-08-22T20:19:06.015Z,88.80
2022-08-22T20:22:02.080Z,89.32
2022-08-22T20:25:02.662Z,89.83
2022-08-22T20:27:36.485Z,90.73
2022-08-22T20:30:15.528Z,89.40
2022-08-22T20:33:02.186Z,88.44
2022-08-22T20:35:45.411Z,88.38
2022-08-22T20:38:20.266Z,89.09
2022-08-22T20:41:13.553Z,88.82
2022-08-22T20:43:57.854Z,89.57
2022-08-22T20:47:12.938Z,89.54
2022-08-22T20:50:02.164Z,88.46
2022-08-22T20:52:51.805Z,88.71
2022-08-22T20:55:31.835Z,88.94
2022-08-22T20:58:25.161Z,88.72
2022-08-22T21:00:57.385Z,88.47
2022-08-22T21:03:46.824Z,88.65
2022-08-22T21:06:24.393Z,87.79
2022-08-22T21:12:18.241Z,87.10
2022-08-22T21:14:47.435Z,87.13
2022-08-22T21:17:39.086Z,87.27
2022-08-22T21:23:14.454Z,88.19
2022-08-22T21:25:52.042Z,88.46
2022-08-22T21:28:53.518Z,88.75
2022-08-22T21:31:29.320Z,89.36
2022-08-22T21:33:57.405Z,89.46
2022-08-22T21:36:30.366Z,89.35
2022-08-22T21:39:27.499Z,89.27
2022-08-22T21:42:00.683Z,89.68
2022-08-22T21:44:43.312Z,89.64
2022-08-22T21:47:31.569Z,89.57
2022-08-22T21:50:19.267Z,89.60
2022-08-22T21:52:55.413Z,89.84
2022-08-22T21:55:34.469Z,89.86
2022-08-22T21:58:35.931Z,89.73
2022-08-22T22:01:28.677Z,89.54
2022-08-22T22:03:58.877Z,89.09
2022-08-22T22:06:26.942Z,88.79
2022-08-22T22:08:55.276Z,88.89
2022-08-22T22:11:22.753Z,88.59
2022-08-22T22:13:50.060Z,88.22
2022-08-22T22:16:29.906Z,88.01
2022-08-22T22:18:57.333Z,87.79
2022-08-22T22:21:24.685Z,88.21
2022-08-22T22:23:52.596Z,88.18
2022-08-22T22:26:21.580Z,88.64
2022-08-22T22:28:50.344Z,88.74
2022-08-22T22:31:19.590Z,88.58
2022-08-22T22:33:47.093Z,88.37
2022-08-22T22:36:23.768Z,87.73
2022-08-22T22:38:52.228Z,87.31
2022-08-22T22:41:25.332Z,87.28
2022-08-22T22:43:54.657Z,86.93
2022-08-22T22:46:23.562Z,87.76
2022-08-22T22:48:51.187Z,88.14
2022-08-22T22:51:18.832Z,87.75
2022-08-22T22:53:46.789Z,87.55
2022-08-22T22:56:21.516Z,87.95
2022-08-22T22:58:49.890Z,88.38
2022-08-22T23:01:27.061Z,88.45
2022-08-22T23:03:57.592Z,88.37
2022-08-22T23:06:28.857Z,87.44
2022-08-22T23:08:57.867Z,87.80
2022-08-22T23:11:30.841Z,88.07
2022-08-22T23:13:58.142Z,87.78
2022-08-22T23:16:28.803Z,87.98
2022-08-22T23:18:56.829Z,88.50
2022-08-22T23:21:29.665Z,88.67
2022-08-22T23:23:59.467Z,88.57
2022-08-22T23:26:29.050Z,87.99
2022-08-22T23:28:59.930Z,88.32
2022-08-22T23:37:35.919Z,88.99
2022-08-22T23:40:07.657Z,88.69
2022-08-22T23:42:35.225Z,88.83
2022-08-22T23:45:02.582Z,88.66
2022-08-22T23:47:30.033Z,88.94
2022-08-22T23:49:57.425Z,89.05
2022-08-22T23:52:25.355Z,88.41
2022-08-22T23:54:55.614Z,89.31
2022-08-22T23:57:27.722Z,88.84
2022-08-22T23:59:57.709Z,88.24
